Tecumseh, Oklahoma
Current Conditions -  °F | °C
As of 1:55 AM on Saturday 20 Dec 2014 (Local Time) from KSNL Reporting Station
Overcast Overcast  
Wind Chill: 43°   Ceiling: 2400
Heat Index: 43°   Visibility: 10mi
Dew Point: 43°   Wind: 0mph
Humidity: 100%   Direction: NA
Pressure: 30.21"   Gusts: NA
Location:  35.26°N, 96.94°W
Report Text: KSNL 200755Z AUTO 00000KT 10SM OVC024 06/06 A3021 RMK AO2
Loading
Personal Weather Stations






























Interactive Weather Map New forecast layout! Learn more

10-Day Weather Forecast

Advertisements
Track Severe Weather on mobile